sensor_id;sensor_type;location;lat;lon;timestamp;P1;durP1;ratioP1;P2;durP2;ratioP2
10347;SDS011;5220;43.192;23.284;2023-11-22T00:00:27;36.35;;;29.27;;
10347;SDS011;5220;43.192;23.284;2023-11-22T00:02:53;20.90;;;16.95;;
10347;SDS011;5220;43.192;23.284;2023-11-22T00:05:20;24.83;;;19.55;;
10347;SDS011;5220;43.192;23.284;2023-11-22T00:07:47;20.42;;;16.13;;
10347;SDS011;5220;43.192;23.284;2023-11-22T00:10:14;18.30;;;15.00;;
10347;SDS011;5220;43.192;23.284;2023-11-22T00:12:41;20.27;;;16.35;;
10347;SDS011;5220;43.192;23.284;2023-11-22T00:15:09;20.73;;;15.85;;
10347;SDS011;5220;43.192;23.284;2023-11-22T00:17:36;19.75;;;15.73;;
10347;SDS011;5220;43.192;23.284;2023-11-22T00:20:04;18.67;;;14.68;;
10347;SDS011;5220;43.192;23.284;2023-11-22T00:22:31;17.42;;;14.32;;
10347;SDS011;5220;43.192;23.284;2023-11-22T00:24:58;19.45;;;15.20;;
10347;SDS011;5220;43.192;23.284;2023-11-22T00:27:26;21.50;;;15.82;;
10347;SDS011;5220;43.192;23.284;2023-11-22T00:29:53;17.48;;;14.50;;
10347;SDS011;5220;43.192;23.284;2023-11-22T00:32:21;21.58;;;15.55;;
10347;SDS011;5220;43.192;23.284;2023-11-22T00:34:48;19.33;;;14.18;;
10347;SDS011;5220;43.192;23.284;2023-11-22T00:37:14;19.52;;;15.05;;
10347;SDS011;5220;43.192;23.284;2023-11-22T00:39:41;19.98;;;15.48;;
10347;SDS011;5220;43.192;23.284;2023-11-22T00:42:08;22.23;;;16.15;;
10347;SDS011;5220;43.192;23.284;2023-11-22T00:44:35;24.10;;;17.35;;
10347;SDS011;5220;43.192;23.284;2023-11-22T00:47:02;19.85;;;16.30;;
10347;SDS011;5220;43.192;23.284;2023-11-22T00:49:31;18.85;;;15.32;;
10347;SDS011;5220;43.192;23.284;2023-11-22T00:51:58;24.48;;;16.25;;
10347;SDS011;5220;43.192;23.284;2023-11-22T00:54:25;21.58;;;15.68;;
10347;SDS011;5220;43.192;23.284;2023-11-22T00:56:52;20.05;;;15.70;;
10347;SDS011;5220;43.192;23.284;2023-11-22T00:59:19;18.58;;;14.48;;
10347;SDS011;5220;43.192;23.284;2023-11-22T01:01:46;22.15;;;15.98;;
10347;SDS011;5220;43.192;23.284;2023-11-22T01:04:12;19.83;;;15.85;;
10347;SDS011;5220;43.192;23.284;2023-11-22T01:06:41;21.55;;;16.45;;
10347;SDS011;5220;43.192;23.284;2023-11-22T01:09:08;21.40;;;16.23;;
10347;SDS011;5220;43.192;23.284;2023-11-22T01:11:37;22.85;;;17.40;;
10347;SDS011;5220;43.192;23.284;2023-11-22T01:14:04;20.70;;;17.17;;
10347;SDS011;5220;43.192;23.284;2023-11-22T01:16:30;23.13;;;17.17;;
10347;SDS011;5220;43.192;23.284;2023-11-22T01:18:57;24.27;;;18.27;;
10347;SDS011;5220;43.192;23.284;2023-11-22T01:21:24;25.88;;;19.50;;
10347;SDS011;5220;43.192;23.284;2023-11-22T01:23:52;30.42;;;19.48;;
10347;SDS011;5220;43.192;23.284;2023-11-22T01:26:19;23.45;;;18.98;;
10347;SDS011;5220;43.192;23.284;2023-11-22T01:28:45;25.88;;;19.70;;
10347;SDS011;5220;43.192;23.284;2023-11-22T01:31:12;25.67;;;18.27;;
10347;SDS011;5220;43.192;23.284;2023-11-22T01:33:39;21.10;;;18.13;;
10347;SDS011;5220;43.192;23.284;2023-11-22T01:36:06;25.25;;;18.75;;
10347;SDS011;5220;43.192;23.284;2023-11-22T01:38:34;25.15;;;19.30;;
10347;SDS011;5220;43.192;23.284;2023-11-22T01:41:02;26.00;;;18.30;;
10347;SDS011;5220;43.192;23.284;2023-11-22T01:43:28;30.15;;;20.40;;
10347;SDS011;5220;43.192;23.284;2023-11-22T01:45:56;28.52;;;20.60;;
10347;SDS011;5220;43.192;23.284;2023-11-22T01:48:23;28.38;;;21.15;;
10347;SDS011;5220;43.192;23.284;2023-11-22T01:50:50;29.58;;;20.95;;
10347;SDS011;5220;43.192;23.284;2023-11-22T01:53:17;31.63;;;22.08;;
10347;SDS011;5220;43.192;23.284;2023-11-22T01:55:46;35.05;;;22.50;;
10347;SDS011;5220;43.192;23.284;2023-11-22T01:58:15;34.10;;;22.50;;
10347;SDS011;5220;43.192;23.284;2023-11-22T02:00:44;39.30;;;24.58;;
10347;SDS011;5220;43.192;23.284;2023-11-22T02:03:15;33.70;;;23.15;;
10347;SDS011;5220;43.192;23.284;2023-11-22T02:05:42;37.63;;;23.92;;
10347;SDS011;5220;43.192;23.284;2023-11-22T02:08:09;33.72;;;23.75;;
10347;SDS011;5220;43.192;23.284;2023-11-22T02:10:36;35.47;;;23.42;;
10347;SDS011;5220;43.192;23.284;2023-11-22T02:13:03;34.05;;;24.00;;
10347;SDS011;5220;43.192;23.284;2023-11-22T02:15:33;38.50;;;22.90;;
10347;SDS011;5220;43.192;23.284;2023-11-22T02:18:00;29.55;;;20.45;;
10347;SDS011;5220;43.192;23.284;2023-11-22T02:20:29;32.80;;;21.13;;
10347;SDS011;5220;43.192;23.284;2023-11-22T02:22:56;31.60;;;21.15;;
10347;SDS011;5220;43.192;23.284;2023-11-22T02:25:24;30.80;;;19.90;;
10347;SDS011;5220;43.192;23.284;2023-11-22T02:27:52;31.52;;;20.38;;
10347;SDS011;5220;43.192;23.284;2023-11-22T02:30:18;30.98;;;19.92;;
10347;SDS011;5220;43.192;23.284;2023-11-22T02:32:46;34.45;;;21.00;;
10347;SDS011;5220;43.192;23.284;2023-11-22T02:35:13;35.10;;;22.40;;
10347;SDS011;5220;43.192;23.284;2023-11-22T02:37:41;34.55;;;21.98;;
10347;SDS011;5220;43.192;23.284;2023-11-22T02:40:12;39.28;;;22.70;;
10347;SDS011;5220;43.192;23.284;2023-11-22T02:42:45;34.83;;;21.58;;
10347;SDS011;5220;43.192;23.284;2023-11-22T02:45:12;34.72;;;20.65;;
10347;SDS011;5220;43.192;23.284;2023-11-22T02:47:39;33.60;;;20.35;;
10347;SDS011;5220;43.192;23.284;2023-11-22T02:50:06;37.08;;;22.23;;
10347;SDS011;5220;43.192;23.284;2023-11-22T02:52:34;33.70;;;19.67;;
10347;SDS011;5220;43.192;23.284;2023-11-22T02:55:01;36.40;;;19.70;;
10347;SDS011;5220;43.192;23.284;2023-11-22T02:57:27;33.80;;;20.73;;
10347;SDS011;5220;43.192;23.284;2023-11-22T02:59:55;36.78;;;22.30;;
10347;SDS011;5220;43.192;23.284;2023-11-22T03:02:22;29.67;;;18.73;;
10347;SDS011;5220;43.192;23.284;2023-11-22T03:04:49;35.42;;;19.15;;
10347;SDS011;5220;43.192;23.284;2023-11-22T03:07:16;25.73;;;16.75;;
10347;SDS011;5220;43.192;23.284;2023-11-22T03:09:43;28.67;;;17.63;;
10347;SDS011;5220;43.192;23.284;2023-11-22T03:12:11;26.70;;;17.90;;
10347;SDS011;5220;43.192;23.284;2023-11-22T03:14:38;28.55;;;17.35;;
10347;SDS011;5220;43.192;23.284;2023-11-22T03:17:06;26.73;;;16.55;;
10347;SDS011;5220;43.192;23.284;2023-11-22T03:19:33;25.30;;;16.58;;
10347;SDS011;5220;43.192;23.284;2023-11-22T03:22:00;23.92;;;16.42;;
10347;SDS011;5220;43.192;23.284;2023-11-22T03:24:28;26.70;;;16.88;;
10347;SDS011;5220;43.192;23.284;2023-11-22T03:26:54;26.92;;;17.15;;
10347;SDS011;5220;43.192;23.284;2023-11-22T03:29:24;29.80;;;16.75;;
10347;SDS011;5220;43.192;23.284;2023-11-22T03:31:51;30.50;;;17.63;;
10347;SDS011;5220;43.192;23.284;2023-11-22T03:34:19;32.33;;;17.25;;
10347;SDS011;5220;43.192;23.284;2023-11-22T03:36:46;28.02;;;17.05;;
10347;SDS011;5220;43.192;23.284;2023-11-22T03:39:14;28.88;;;18.38;;
10347;SDS011;5220;43.192;23.284;2023-11-22T03:41:41;28.30;;;17.45;;
10347;SDS011;5220;43.192;23.284;2023-11-22T03:44:08;34.60;;;17.55;;
10347;SDS011;5220;43.192;23.284;2023-11-22T03:46:35;30.90;;;17.67;;
10347;SDS011;5220;43.192;23.284;2023-11-22T03:49:02;28.63;;;17.33;;
10347;SDS011;5220;43.192;23.284;2023-11-22T03:51:30;30.15;;;17.52;;
10347;SDS011;5220;43.192;23.284;2023-11-22T03:53:57;30.00;;;17.13;;
10347;SDS011;5220;43.192;23.284;2023-11-22T03:56:24;26.13;;;16.15;;
10347;SDS011;5220;43.192;23.284;2023-11-22T03:58:51;45.10;;;26.85;;
10347;SDS011;5220;43.192;23.284;2023-11-22T04:01:18;47.15;;;27.92;;
10347;SDS011;5220;43.192;23.284;2023-11-22T04:03:45;45.85;;;27.83;;
10347;SDS011;5220;43.192;23.284;2023-11-22T04:06:13;45.55;;;27.08;;
10347;SDS011;5220;43.192;23.284;2023-11-22T04:08:42;48.58;;;27.23;;
10347;SDS011;5220;43.192;23.284;2023-11-22T04:11:09;41.85;;;24.85;;
10347;SDS011;5220;43.192;23.284;2023-11-22T04:13:36;32.13;;;21.02;;
10347;SDS011;5220;43.192;23.284;2023-11-22T04:16:04;30.98;;;19.50;;
10347;SDS011;5220;43.192;23.284;2023-11-22T04:18:33;29.42;;;19.55;;
10347;SDS011;5220;43.192;23.284;2023-11-22T04:21:00;32.75;;;19.30;;
10347;SDS011;5220;43.192;23.284;2023-11-22T04:23:29;33.75;;;20.17;;
10347;SDS011;5220;43.192;23.284;2023-11-22T04:25:57;35.03;;;20.33;;
10347;SDS011;5220;43.192;23.284;2023-11-22T04:28:24;31.40;;;19.20;;
10347;SDS011;5220;43.192;23.284;2023-11-22T04:30:51;31.00;;;20.17;;
10347;SDS011;5220;43.192;23.284;2023-11-22T04:33:18;32.33;;;19.88;;
10347;SDS011;5220;43.192;23.284;2023-11-22T04:35:45;29.48;;;18.00;;
10347;SDS011;5220;43.192;23.284;2023-11-22T04:38:12;25.80;;;17.30;;
10347;SDS011;5220;43.192;23.284;2023-11-22T04:40:38;29.17;;;17.95;;
10347;SDS011;5220;43.192;23.284;2023-11-22T04:43:06;26.38;;;17.10;;
10347;SDS011;5220;43.192;23.284;2023-11-22T04:45:33;24.25;;;15.75;;
10347;SDS011;5220;43.192;23.284;2023-11-22T04:48:00;25.35;;;16.15;;
10347;SDS011;5220;43.192;23.284;2023-11-22T04:50:27;25.80;;;15.52;;
10347;SDS011;5220;43.192;23.284;2023-11-22T04:52:54;24.20;;;15.77;;
10347;SDS011;5220;43.192;23.284;2023-11-22T04:55:21;22.98;;;14.23;;
10347;SDS011;5220;43.192;23.284;2023-11-22T04:57:48;21.65;;;13.20;;
10347;SDS011;5220;43.192;23.284;2023-11-22T05:00:17;21.65;;;14.27;;
10347;SDS011;5220;43.192;23.284;2023-11-22T05:02:44;21.00;;;14.18;;
10347;SDS011;5220;43.192;23.284;2023-11-22T05:05:10;21.90;;;13.82;;
10347;SDS011;5220;43.192;23.284;2023-11-22T05:07:37;29.13;;;19.85;;
10347;SDS011;5220;43.192;23.284;2023-11-22T05:10:04;27.67;;;19.00;;
10347;SDS011;5220;43.192;23.284;2023-11-22T05:12:33;29.33;;;17.90;;
10347;SDS011;5220;43.192;23.284;2023-11-22T05:15:00;28.75;;;18.73;;
10347;SDS011;5220;43.192;23.284;2023-11-22T05:17:28;25.88;;;16.67;;
10347;SDS011;5220;43.192;23.284;2023-11-22T05:19:55;23.98;;;15.45;;
10347;SDS011;5220;43.192;23.284;2023-11-22T05:22:21;21.25;;;15.30;;
10347;SDS011;5220;43.192;23.284;2023-11-22T05:24:48;23.48;;;14.45;;
10347;SDS011;5220;43.192;23.284;2023-11-22T05:27:15;23.55;;;14.73;;
10347;SDS011;5220;43.192;23.284;2023-11-22T05:29:42;20.40;;;14.55;;
10347;SDS011;5220;43.192;23.284;2023-11-22T05:32:09;17.42;;;12.40;;
10347;SDS011;5220;43.192;23.284;2023-11-22T05:34:37;17.05;;;12.82;;
10347;SDS011;5220;43.192;23.284;2023-11-22T05:37:05;15.55;;;12.00;;
10347;SDS011;5220;43.192;23.284;2023-11-22T05:39:32;15.85;;;11.45;;
10347;SDS011;5220;43.192;23.284;2023-11-22T05:41:59;17.08;;;10.90;;
10347;SDS011;5220;43.192;23.284;2023-11-22T05:44:25;14.85;;;11.10;;
10347;SDS011;5220;43.192;23.284;2023-11-22T05:46:52;15.20;;;11.30;;
10347;SDS011;5220;43.192;23.284;2023-11-22T05:49:19;16.27;;;12.13;;
10347;SDS011;5220;43.192;23.284;2023-11-22T05:51:48;14.55;;;11.23;;
10347;SDS011;5220;43.192;23.284;2023-11-22T05:54:14;14.10;;;10.90;;
10347;SDS011;5220;43.192;23.284;2023-11-22T05:56:41;15.13;;;11.15;;
10347;SDS011;5220;43.192;23.284;2023-11-22T05:59:08;16.30;;;11.65;;
10347;SDS011;5220;43.192;23.284;2023-11-22T06:01:35;16.30;;;11.55;;
10347;SDS011;5220;43.192;23.284;2023-11-22T06:04:01;14.73;;;11.55;;
10347;SDS011;5220;43.192;23.284;2023-11-22T06:06:29;15.80;;;12.15;;
10347;SDS011;5220;43.192;23.284;2023-11-22T06:08:57;25.08;;;17.27;;
10347;SDS011;5220;43.192;23.284;2023-11-22T06:11:25;45.67;;;31.23;;
10347;SDS011;5220;43.192;23.284;2023-11-22T06:13:52;54.38;;;40.22;;
10347;SDS011;5220;43.192;23.284;2023-11-22T06:16:18;47.00;;;30.77;;
10347;SDS011;5220;43.192;23.284;2023-11-22T06:18:45;29.25;;;20.95;;
10347;SDS011;5220;43.192;23.284;2023-11-22T06:21:12;25.73;;;17.95;;
10347;SDS011;5220;43.192;23.284;2023-11-22T06:23:38;25.15;;;18.48;;
10347;SDS011;5220;43.192;23.284;2023-11-22T06:26:07;22.42;;;15.40;;
10347;SDS011;5220;43.192;23.284;2023-11-22T06:28:33;23.33;;;16.27;;
10347;SDS011;5220;43.192;23.284;2023-11-22T06:31:01;23.92;;;15.07;;
10347;SDS011;5220;43.192;23.284;2023-11-22T06:33:28;24.13;;;16.83;;
10347;SDS011;5220;43.192;23.284;2023-11-22T06:35:55;23.35;;;16.92;;
10347;SDS011;5220;43.192;23.284;2023-11-22T06:38:21;24.30;;;18.55;;
10347;SDS011;5220;43.192;23.284;2023-11-22T06:40:48;26.30;;;20.52;;
10347;SDS011;5220;43.192;23.284;2023-11-22T06:43:16;30.15;;;22.00;;
10347;SDS011;5220;43.192;23.284;2023-11-22T06:45:43;25.75;;;19.58;;
10347;SDS011;5220;43.192;23.284;2023-11-22T06:48:10;27.58;;;19.75;;
10347;SDS011;5220;43.192;23.284;2023-11-22T06:50:36;21.65;;;16.95;;
10347;SDS011;5220;43.192;23.284;2023-11-22T06:53:03;23.88;;;18.25;;
10347;SDS011;5220;43.192;23.284;2023-11-22T06:55:31;21.88;;;17.10;;
10347;SDS011;5220;43.192;23.284;2023-11-22T06:57:58;21.02;;;14.65;;
10347;SDS011;5220;43.192;23.284;2023-11-22T07:00:26;19.55;;;13.45;;
10347;SDS011;5220;43.192;23.284;2023-11-22T07:02:53;15.27;;;12.20;;
10347;SDS011;5220;43.192;23.284;2023-11-22T07:05:21;15.00;;;13.05;;
10347;SDS011;5220;43.192;23.284;2023-11-22T07:07:48;12.23;;;9.45;;
10347;SDS011;5220;43.192;23.284;2023-11-22T07:10:15;12.75;;;10.50;;
10347;SDS011;5220;43.192;23.284;2023-11-22T07:12:46;13.70;;;10.48;;
10347;SDS011;5220;43.192;23.284;2023-11-22T07:15:13;12.82;;;10.70;;
10347;SDS011;5220;43.192;23.284;2023-11-22T07:17:41;14.90;;;11.82;;
10347;SDS011;5220;43.192;23.284;2023-11-22T07:20:08;13.88;;;11.68;;
10347;SDS011;5220;43.192;23.284;2023-11-22T07:22:41;18.48;;;16.05;;
10347;SDS011;5220;43.192;23.284;2023-11-22T07:25:08;30.40;;;23.83;;
10347;SDS011;5220;43.192;23.284;2023-11-22T07:27:43;22.33;;;17.15;;
10347;SDS011;5220;43.192;23.284;2023-11-22T07:30:10;14.57;;;11.90;;
10347;SDS011;5220;43.192;23.284;2023-11-22T07:32:39;51.55;;;44.55;;
10347;SDS011;5220;43.192;23.284;2023-11-22T07:35:07;25.27;;;20.40;;
10347;SDS011;5220;43.192;23.284;2023-11-22T07:37:35;15.02;;;12.50;;
10347;SDS011;5220;43.192;23.284;2023-11-22T07:40:05;11.65;;;9.60;;
10347;SDS011;5220;43.192;23.284;2023-11-22T07:42:34;8.73;;;7.38;;
10347;SDS011;5220;43.192;23.284;2023-11-22T07:45:01;10.25;;;8.48;;
10347;SDS011;5220;43.192;23.284;2023-11-22T07:47:28;10.02;;;8.57;;
10347;SDS011;5220;43.192;23.284;2023-11-22T07:49:54;9.02;;;6.93;;
10347;SDS011;5220;43.192;23.284;2023-11-22T07:52:23;9.25;;;8.35;;
10347;SDS011;5220;43.192;23.284;2023-11-22T07:54:54;13.10;;;11.15;;
10347;SDS011;5220;43.192;23.284;2023-11-22T07:57:21;23.65;;;19.15;;
10347;SDS011;5220;43.192;23.284;2023-11-22T07:59:48;21.50;;;19.17;;
10347;SDS011;5220;43.192;23.284;2023-11-22T08:02:15;17.70;;;15.65;;
10347;SDS011;5220;43.192;23.284;2023-11-22T08:04:43;14.32;;;11.05;;
10347;SDS011;5220;43.192;23.284;2023-11-22T08:07:12;72.80;;;62.50;;
10347;SDS011;5220;43.192;23.284;2023-11-22T08:09:41;11.50;;;10.30;;
10347;SDS011;5220;43.192;23.284;2023-11-22T08:12:08;23.80;;;17.40;;
10347;SDS011;5220;43.192;23.284;2023-11-22T08:14:36;10.75;;;9.32;;
10347;SDS011;5220;43.192;23.284;2023-11-22T08:17:03;9.50;;;8.50;;
10347;SDS011;5220;43.192;23.284;2023-11-22T08:19:30;12.43;;;10.98;;
10347;SDS011;5220;43.192;23.284;2023-11-22T08:21:57;16.27;;;14.57;;
10347;SDS011;5220;43.192;23.284;2023-11-22T08:24:24;16.52;;;14.82;;
10347;SDS011;5220;43.192;23.284;2023-11-22T08:26:52;14.27;;;12.77;;
10347;SDS011;5220;43.192;23.284;2023-11-22T08:29:19;19.73;;;16.50;;
10347;SDS011;5220;43.192;23.284;2023-11-22T08:31:45;19.88;;;15.70;;
10347;SDS011;5220;43.192;23.284;2023-11-22T08:34:13;19.20;;;15.57;;
10347;SDS011;5220;43.192;23.284;2023-11-22T08:36:40;35.78;;;27.58;;
10347;SDS011;5220;43.192;23.284;2023-11-22T08:39:07;29.33;;;23.38;;
10347;SDS011;5220;43.192;23.284;2023-11-22T08:41:34;14.73;;;13.23;;
10347;SDS011;5220;43.192;23.284;2023-11-22T08:44:02;18.10;;;16.15;;
10347;SDS011;5220;43.192;23.284;2023-11-22T08:46:29;20.58;;;17.63;;
10347;SDS011;5220;43.192;23.284;2023-11-22T08:48:56;15.88;;;14.18;;
10347;SDS011;5220;43.192;23.284;2023-11-22T08:51:22;15.68;;;13.70;;
10347;SDS011;5220;43.192;23.284;2023-11-22T08:53:48;14.63;;;13.13;;
10347;SDS011;5220;43.192;23.284;2023-11-22T08:56:16;20.27;;;15.68;;
10347;SDS011;5220;43.192;23.284;2023-11-22T08:58:42;18.88;;;15.07;;
10347;SDS011;5220;43.192;23.284;2023-11-22T09:01:11;20.90;;;17.67;;
10347;SDS011;5220;43.192;23.284;2023-11-22T09:03:39;21.70;;;18.15;;
10347;SDS011;5220;43.192;23.284;2023-11-22T09:06:06;22.77;;;19.02;;
10347;SDS011;5220;43.192;23.284;2023-11-22T09:08:33;22.25;;;18.95;;
10347;SDS011;5220;43.192;23.284;2023-11-22T09:11:00;22.95;;;19.20;;
10347;SDS011;5220;43.192;23.284;2023-11-22T09:13:31;21.98;;;18.15;;
10347;SDS011;5220;43.192;23.284;2023-11-22T09:15:57;19.45;;;16.55;;
10347;SDS011;5220;43.192;23.284;2023-11-22T09:18:25;16.15;;;14.45;;
10347;SDS011;5220;43.192;23.284;2023-11-22T09:20:52;16.58;;;14.80;;
10347;SDS011;5220;43.192;23.284;2023-11-22T09:23:19;13.20;;;11.27;;
10347;SDS011;5220;43.192;23.284;2023-11-22T09:25:46;15.75;;;13.95;;
10347;SDS011;5220;43.192;23.284;2023-11-22T09:28:13;15.60;;;13.43;;
10347;SDS011;5220;43.192;23.284;2023-11-22T09:30:41;19.75;;;15.70;;
10347;SDS011;5220;43.192;23.284;2023-11-22T09:33:09;15.70;;;13.93;;
10347;SDS011;5220;43.192;23.284;2023-11-22T09:35:39;16.83;;;13.07;;
10347;SDS011;5220;43.192;23.284;2023-11-22T09:38:06;16.23;;;13.82;;
10347;SDS011;5220;43.192;23.284;2023-11-22T09:40:37;15.75;;;12.70;;
10347;SDS011;5220;43.192;23.284;2023-11-22T09:43:07;17.60;;;13.18;;
10347;SDS011;5220;43.192;23.284;2023-11-22T09:45:34;15.90;;;11.45;;
10347;SDS011;5220;43.192;23.284;2023-11-22T09:48:03;10.65;;;8.43;;
10347;SDS011;5220;43.192;23.284;2023-11-22T09:50:39;9.48;;;7.05;;
10347;SDS011;5220;43.192;23.284;2023-11-22T09:53:10;7.75;;;6.63;;
10347;SDS011;5220;43.192;23.284;2023-11-22T09:55:40;6.72;;;5.95;;
10347;SDS011;5220;43.192;23.284;2023-11-22T09:58:11;5.20;;;4.70;;
10347;SDS011;5220;43.192;23.284;2023-11-22T10:00:39;3.92;;;3.53;;
10347;SDS011;5220;43.192;23.284;2023-11-22T10:03:07;5.78;;;4.78;;
10347;SDS011;5220;43.192;23.284;2023-11-22T10:05:38;4.28;;;3.90;;
10347;SDS011;5220;43.192;23.284;2023-11-22T10:08:05;3.80;;;3.50;;
10347;SDS011;5220;43.192;23.284;2023-11-22T10:10:34;4.88;;;4.47;;
10347;SDS011;5220;43.192;23.284;2023-11-22T10:13:02;2.97;;;2.78;;
10347;SDS011;5220;43.192;23.284;2023-11-22T10:15:29;3.50;;;3.17;;
10347;SDS011;5220;43.192;23.284;2023-11-22T10:17:57;4.97;;;4.00;;
10347;SDS011;5220;43.192;23.284;2023-11-22T10:20:25;7.47;;;5.80;;
10347;SDS011;5220;43.192;23.284;2023-11-22T10:23:03;12.27;;;10.68;;
10347;SDS011;5220;43.192;23.284;2023-11-22T10:25:35;7.68;;;6.88;;
10347;SDS011;5220;43.192;23.284;2023-11-22T10:28:02;8.98;;;7.32;;
10347;SDS011;5220;43.192;23.284;2023-11-22T10:30:29;8.70;;;7.45;;
10347;SDS011;5220;43.192;23.284;2023-11-22T10:32:57;7.28;;;6.57;;
10347;SDS011;5220;43.192;23.284;2023-11-22T10:35:23;6.72;;;6.00;;
10347;SDS011;5220;43.192;23.284;2023-11-22T10:37:52;7.55;;;6.57;;
10347;SDS011;5220;43.192;23.284;2023-11-22T10:40:20;8.43;;;6.97;;
10347;SDS011;5220;43.192;23.284;2023-11-22T10:42:49;7.53;;;6.75;;
10347;SDS011;5220;43.192;23.284;2023-11-22T10:45:18;10.07;;;8.57;;
10347;SDS011;5220;43.192;23.284;2023-11-22T10:47:47;9.35;;;8.00;;
10347;SDS011;5220;43.192;23.284;2023-11-22T10:50:16;7.57;;;6.78;;
10347;SDS011;5220;43.192;23.284;2023-11-22T10:52:45;4.93;;;3.97;;
10347;SDS011;5220;43.192;23.284;2023-11-22T10:55:15;6.07;;;5.55;;
10347;SDS011;5220;43.192;23.284;2023-11-22T10:57:45;9.32;;;8.52;;
10347;SDS011;5220;43.192;23.284;2023-11-22T11:00:15;11.18;;;9.18;;
10347;SDS011;5220;43.192;23.284;2023-11-22T11:02:45;31.00;;;27.70;;
10347;SDS011;5220;43.192;23.284;2023-11-22T11:05:15;9.63;;;8.25;;
10347;SDS011;5220;43.192;23.284;2023-11-22T11:07:45;13.05;;;10.65;;
10347;SDS011;5220;43.192;23.284;2023-11-22T11:10:17;9.48;;;8.60;;
10347;SDS011;5220;43.192;23.284;2023-11-22T11:12:48;15.82;;;12.52;;
10347;SDS011;5220;43.192;23.284;2023-11-22T11:15:15;42.78;;;30.77;;
10347;SDS011;5220;43.192;23.284;2023-11-22T11:17:44;15.00;;;12.93;;
10347;SDS011;5220;43.192;23.284;2023-11-22T11:20:15;8.88;;;6.40;;
10347;SDS011;5220;43.192;23.284;2023-11-22T11:22:43;4.53;;;4.13;;
10347;SDS011;5220;43.192;23.284;2023-11-22T11:25:13;6.80;;;6.10;;
10347;SDS011;5220;43.192;23.284;2023-11-22T11:27:43;9.52;;;8.52;;
10347;SDS011;5220;43.192;23.284;2023-11-22T11:33:13;7.78;;;6.97;;
10347;SDS011;5220;43.192;23.284;2023-11-22T11:35:42;11.95;;;10.20;;
10347;SDS011;5220;43.192;23.284;2023-11-22T11:38:12;9.27;;;8.27;;
10347;SDS011;5220;43.192;23.284;2023-11-22T11:40:40;12.90;;;10.13;;
10347;SDS011;5220;43.192;23.284;2023-11-22T11:43:07;14.07;;;11.20;;
10347;SDS011;5220;43.192;23.284;2023-11-22T11:45:37;13.32;;;11.43;;
10347;SDS011;5220;43.192;23.284;2023-11-22T11:48:12;15.48;;;11.40;;
10347;SDS011;5220;43.192;23.284;2023-11-22T11:50:40;15.30;;;12.80;;
10347;SDS011;5220;43.192;23.284;2023-11-22T11:53:07;20.30;;;15.30;;
10347;SDS011;5220;43.192;23.284;2023-11-22T11:55:34;19.67;;;15.57;;
10347;SDS011;5220;43.192;23.284;2023-11-22T11:58:04;15.38;;;12.77;;
10347;SDS011;5220;43.192;23.284;2023-11-22T12:00:33;15.07;;;11.90;;
10347;SDS011;5220;43.192;23.284;2023-11-22T12:02:59;13.50;;;12.07;;
10347;SDS011;5220;43.192;23.284;2023-11-22T12:05:28;11.90;;;8.95;;
10347;SDS011;5220;43.192;23.284;2023-11-22T12:07:55;6.38;;;5.78;;
10347;SDS011;5220;43.192;23.284;2023-11-22T12:10:22;6.63;;;6.03;;
10347;SDS011;5220;43.192;23.284;2023-11-22T12:12:49;7.57;;;6.47;;
10347;SDS011;5220;43.192;23.284;2023-11-22T12:15:17;7.60;;;6.90;;
10347;SDS011;5220;43.192;23.284;2023-11-22T12:17:44;11.50;;;10.30;;
10347;SDS011;5220;43.192;23.284;2023-11-22T12:20:16;14.05;;;11.25;;
10347;SDS011;5220;43.192;23.284;2023-11-22T12:22:48;11.88;;;10.57;;
10347;SDS011;5220;43.192;23.284;2023-11-22T12:25:15;8.60;;;7.68;;
10347;SDS011;5220;43.192;23.284;2023-11-22T12:27:46;8.90;;;8.00;;
10347;SDS011;5220;43.192;23.284;2023-11-22T12:30:29;8.88;;;8.00;;
10347;SDS011;5220;43.192;23.284;2023-11-22T12:33:00;9.82;;;8.68;;
10347;SDS011;5220;43.192;23.284;2023-11-22T12:35:29;12.60;;;11.30;;
10347;SDS011;5220;43.192;23.284;2023-11-22T12:38:07;12.82;;;10.98;;
10347;SDS011;5220;43.192;23.284;2023-11-22T12:40:34;11.75;;;10.50;;
10347;SDS011;5220;43.192;23.284;2023-11-22T12:43:01;10.65;;;9.50;;
10347;SDS011;5220;43.192;23.284;2023-11-22T12:45:29;9.18;;;8.25;;
10347;SDS011;5220;43.192;23.284;2023-11-22T12:48:03;11.75;;;10.32;;
10347;SDS011;5220;43.192;23.284;2023-11-22T12:50:47;11.38;;;10.25;;
10347;SDS011;5220;43.192;23.284;2023-11-22T12:53:16;13.60;;;12.25;;
10347;SDS011;5220;43.192;23.284;2023-11-22T12:55:47;6.72;;;6.10;;
10347;SDS011;5220;43.192;23.284;2023-11-22T12:58:15;6.82;;;6.05;;
10347;SDS011;5220;43.192;23.284;2023-11-22T13:00:43;10.75;;;9.65;;
10347;SDS011;5220;43.192;23.284;2023-11-22T13:03:10;14.05;;;12.55;;
10347;SDS011;5220;43.192;23.284;2023-11-22T13:05:38;16.08;;;14.05;;
10347;SDS011;5220;43.192;23.284;2023-11-22T13:08:05;14.95;;;13.35;;
10347;SDS011;5220;43.192;23.284;2023-11-22T13:10:33;16.75;;;14.15;;
10347;SDS011;5220;43.192;23.284;2023-11-22T13:13:00;16.13;;;13.80;;
10347;SDS011;5220;43.192;23.284;2023-11-22T13:15:27;14.57;;;13.18;;
10347;SDS011;5220;43.192;23.284;2023-11-22T13:17:55;16.48;;;14.18;;
10347;SDS011;5220;43.192;23.284;2023-11-22T13:20:22;19.25;;;14.05;;
10347;SDS011;5220;43.192;23.284;2023-11-22T13:22:50;19.38;;;16.63;;
10347;SDS011;5220;43.192;23.284;2023-11-22T13:25:17;15.63;;;14.02;;
10347;SDS011;5220;43.192;23.284;2023-11-22T13:27:46;17.17;;;15.05;;
10347;SDS011;5220;43.192;23.284;2023-11-22T13:30:14;46.75;;;35.47;;
10347;SDS011;5220;43.192;23.284;2023-11-22T13:32:42;27.48;;;21.48;;
10347;SDS011;5220;43.192;23.284;2023-11-22T13:35:09;16.15;;;13.73;;
10347;SDS011;5220;43.192;23.284;2023-11-22T13:37:40;11.65;;;10.45;;
10347;SDS011;5220;43.192;23.284;2023-11-22T13:40:09;9.50;;;8.60;;
10347;SDS011;5220;43.192;23.284;2023-11-22T13:42:41;11.25;;;10.00;;
10347;SDS011;5220;43.192;23.284;2023-11-22T13:45:11;16.13;;;14.43;;
10347;SDS011;5220;43.192;23.284;2023-11-22T13:47:41;17.80;;;15.55;;
10347;SDS011;5220;43.192;23.284;2023-11-22T13:50:09;21.85;;;17.42;;
10347;SDS011;5220;43.192;23.284;2023-11-22T13:52:38;22.50;;;18.90;;
10347;SDS011;5220;43.192;23.284;2023-11-22T13:55:05;21.58;;;18.50;;
10347;SDS011;5220;43.192;23.284;2023-11-22T13:57:36;20.42;;;17.02;;
10347;SDS011;5220;43.192;23.284;2023-11-22T14:00:03;17.33;;;14.38;;
10347;SDS011;5220;43.192;23.284;2023-11-22T14:02:35;13.73;;;12.30;;
10347;SDS011;5220;43.192;23.284;2023-11-22T14:05:02;17.02;;;12.85;;
10347;SDS011;5220;43.192;23.284;2023-11-22T14:07:32;14.73;;;12.63;;
10347;SDS011;5220;43.192;23.284;2023-11-22T14:10:00;16.17;;;12.48;;
10347;SDS011;5220;43.192;23.284;2023-11-22T14:12:28;14.95;;;13.35;;
10347;SDS011;5220;43.192;23.284;2023-11-22T14:14:55;16.67;;;11.80;;
10347;SDS011;5220;43.192;23.284;2023-11-22T14:17:22;11.80;;;10.60;;
10347;SDS011;5220;43.192;23.284;2023-11-22T14:19:50;11.00;;;9.90;;
10347;SDS011;5220;43.192;23.284;2023-11-22T14:22:17;11.45;;;10.35;;
10347;SDS011;5220;43.192;23.284;2023-11-22T14:24:46;11.48;;;10.38;;
10347;SDS011;5220;43.192;23.284;2023-11-22T14:27:12;11.65;;;10.45;;
10347;SDS011;5220;43.192;23.284;2023-11-22T14:29:39;14.35;;;12.85;;
10347;SDS011;5220;43.192;23.284;2023-11-22T14:32:07;19.10;;;14.88;;